sensor_id;sensor_type;location;lat;lon;timestamp;P1;durP1;ratioP1;P2;durP2;ratioP2
8871;SDS011;4472;52.092;9.820;2022-09-09T00:12:12;1.93;;;1.73;;
8871;SDS011;4472;52.092;9.820;2022-09-09T00:16:19;2.17;;;1.80;;
8871;SDS011;4472;52.092;9.820;2022-09-09T01:21:39;4.17;;;1.80;;
8871;SDS011;4472;52.092;9.820;2022-09-09T01:56:15;2.63;;;1.80;;
8871;SDS011;4472;52.092;9.820;2022-09-09T03:11:36;2.53;;;1.83;;
8871;SDS011;4472;52.092;9.820;2022-09-09T03:14:24;2.57;;;1.80;;
8871;SDS011;4472;52.092;9.820;2022-09-09T03:17:11;6.70;;;2.20;;
8871;SDS011;4472;52.092;9.820;2022-09-09T03:19:59;4.03;;;1.90;;
8871;SDS011;4472;52.092;9.820;2022-09-09T03:22:46;3.80;;;2.07;;
8871;SDS011;4472;52.092;9.820;2022-09-09T03:25:34;3.40;;;1.80;;
8871;SDS011;4472;52.092;9.820;2022-09-09T03:28:22;3.97;;;1.90;;
8871;SDS011;4472;52.092;9.820;2022-09-09T03:31:15;2.87;;;1.80;;
8871;SDS011;4472;52.092;9.820;2022-09-09T03:34:02;3.87;;;2.10;;
8871;SDS011;4472;52.092;9.820;2022-09-09T03:36:49;2.27;;;1.90;;
8871;SDS011;4472;52.092;9.820;2022-09-09T03:39:37;3.87;;;1.80;;
8871;SDS011;4472;52.092;9.820;2022-09-09T03:42:24;3.67;;;1.90;;
8871;SDS011;4472;52.092;9.820;2022-09-09T03:45:12;5.53;;;2.20;;
8871;SDS011;4472;52.092;9.820;2022-09-09T03:47:59;5.50;;;2.20;;
8871;SDS011;4472;52.092;9.820;2022-09-09T03:50:47;2.50;;;1.60;;
8871;SDS011;4472;52.092;9.820;2022-09-09T03:53:35;3.80;;;1.90;;
8871;SDS011;4472;52.092;9.820;2022-09-09T03:56:23;4.53;;;2.27;;
8871;SDS011;4472;52.092;9.820;2022-09-09T03:59:10;2.50;;;1.73;;
8871;SDS011;4472;52.092;9.820;2022-09-09T04:02:01;2.33;;;1.63;;
8871;SDS011;4472;52.092;9.820;2022-09-09T04:04:48;4.47;;;1.67;;
8871;SDS011;4472;52.092;9.820;2022-09-09T04:07:35;5.37;;;1.70;;
8871;SDS011;4472;52.092;9.820;2022-09-09T04:10:22;4.40;;;1.87;;
8871;SDS011;4472;52.092;9.820;2022-09-09T04:13:09;3.83;;;2.10;;
8871;SDS011;4472;52.092;9.820;2022-09-09T04:15:58;4.33;;;1.90;;
8871;SDS011;4472;52.092;9.820;2022-09-09T04:18:47;4.40;;;2.00;;
8871;SDS011;4472;52.092;9.820;2022-09-09T04:21:35;7.40;;;1.90;;
8871;SDS011;4472;52.092;9.820;2022-09-09T04:24:22;7.10;;;2.13;;
8871;SDS011;4472;52.092;9.820;2022-09-09T04:27:09;4.10;;;2.20;;
8871;SDS011;4472;52.092;9.820;2022-09-09T04:29:57;4.00;;;2.00;;
8871;SDS011;4472;52.092;9.820;2022-09-09T04:32:44;3.83;;;2.00;;
8871;SDS011;4472;52.092;9.820;2022-09-09T04:35:33;2.67;;;2.20;;
8871;SDS011;4472;52.092;9.820;2022-09-09T04:38:20;2.93;;;1.70;;
8871;SDS011;4472;52.092;9.820;2022-09-09T04:41:09;6.00;;;1.90;;
8871;SDS011;4472;52.092;9.820;2022-09-09T04:43:57;3.17;;;1.87;;
8871;SDS011;4472;52.092;9.820;2022-09-09T04:46:58;3.80;;;2.10;;
8871;SDS011;4472;52.092;9.820;2022-09-09T04:49:55;3.40;;;2.20;;
8871;SDS011;4472;52.092;9.820;2022-09-09T04:52:44;5.37;;;2.20;;
8871;SDS011;4472;52.092;9.820;2022-09-09T04:55:31;2.87;;;1.77;;
8871;SDS011;4472;52.092;9.820;2022-09-09T04:58:20;5.33;;;2.10;;
8871;SDS011;4472;52.092;9.820;2022-09-09T05:01:09;5.00;;;2.50;;
8871;SDS011;4472;52.092;9.820;2022-09-09T05:03:58;6.63;;;2.00;;
8871;SDS011;4472;52.092;9.820;2022-09-09T05:06:45;4.70;;;2.20;;
8871;SDS011;4472;52.092;9.820;2022-09-09T05:09:34;3.33;;;1.90;;
8871;SDS011;4472;52.092;9.820;2022-09-09T05:12:21;3.60;;;2.00;;
8871;SDS011;4472;52.092;9.820;2022-09-09T05:15:09;2.93;;;2.03;;
8871;SDS011;4472;52.092;9.820;2022-09-09T05:17:57;2.77;;;1.90;;
8871;SDS011;4472;52.092;9.820;2022-09-09T05:20:45;5.57;;;2.00;;
8871;SDS011;4472;52.092;9.820;2022-09-09T05:23:34;4.20;;;2.17;;
8871;SDS011;4472;52.092;9.820;2022-09-09T05:26:38;4.17;;;2.00;;
8871;SDS011;4472;52.092;9.820;2022-09-09T05:29:47;4.57;;;2.00;;
8871;SDS011;4472;52.092;9.820;2022-09-09T05:39:15;5.00;;;2.27;;
8871;SDS011;4472;52.092;9.820;2022-09-09T07:03:51;4.53;;;2.07;;
8871;SDS011;4472;52.092;9.820;2022-09-09T07:06:53;2.47;;;1.80;;
8871;SDS011;4472;52.092;9.820;2022-09-09T07:09:41;4.73;;;1.70;;
8871;SDS011;4472;52.092;9.820;2022-09-09T07:12:28;7.53;;;1.93;;
8871;SDS011;4472;52.092;9.820;2022-09-09T07:15:15;4.67;;;2.40;;
8871;SDS011;4472;52.092;9.820;2022-09-09T07:18:04;6.07;;;2.27;;
8871;SDS011;4472;52.092;9.820;2022-09-09T07:21:04;3.00;;;2.00;;
8871;SDS011;4472;52.092;9.820;2022-09-09T07:23:54;5.40;;;2.00;;
8871;SDS011;4472;52.092;9.820;2022-09-09T07:26:45;5.43;;;1.80;;
8871;SDS011;4472;52.092;9.820;2022-09-09T07:29:32;4.93;;;1.83;;
8871;SDS011;4472;52.092;9.820;2022-09-09T07:32:19;2.30;;;1.50;;
8871;SDS011;4472;52.092;9.820;2022-09-09T07:35:07;5.03;;;1.90;;
8871;SDS011;4472;52.092;9.820;2022-09-09T07:37:57;3.63;;;1.70;;
8871;SDS011;4472;52.092;9.820;2022-09-09T07:40:47;4.83;;;2.00;;
8871;SDS011;4472;52.092;9.820;2022-09-09T07:43:35;5.43;;;2.43;;
8871;SDS011;4472;52.092;9.820;2022-09-09T07:46:23;4.80;;;2.40;;
8871;SDS011;4472;52.092;9.820;2022-09-09T07:49:16;4.90;;;2.07;;
8871;SDS011;4472;52.092;9.820;2022-09-09T07:52:03;3.87;;;1.93;;
8871;SDS011;4472;52.092;9.820;2022-09-09T07:54:52;8.03;;;1.90;;
8871;SDS011;4472;52.092;9.820;2022-09-09T07:57:39;4.67;;;1.97;;
8871;SDS011;4472;52.092;9.820;2022-09-09T08:00:26;4.13;;;1.80;;
8871;SDS011;4472;52.092;9.820;2022-09-09T08:03:16;4.10;;;1.93;;
8871;SDS011;4472;52.092;9.820;2022-09-09T08:06:08;4.37;;;1.80;;
8871;SDS011;4472;52.092;9.820;2022-09-09T08:08:59;6.10;;;1.90;;
8871;SDS011;4472;52.092;9.820;2022-09-09T08:11:48;5.03;;;1.63;;
8871;SDS011;4472;52.092;9.820;2022-09-09T08:14:36;5.00;;;1.70;;
8871;SDS011;4472;52.092;9.820;2022-09-09T08:17:23;2.63;;;1.63;;
8871;SDS011;4472;52.092;9.820;2022-09-09T08:20:11;3.87;;;1.60;;
8871;SDS011;4472;52.092;9.820;2022-09-09T08:22:59;4.10;;;1.87;;
8871;SDS011;4472;52.092;9.820;2022-09-09T08:25:50;3.77;;;1.80;;
8871;SDS011;4472;52.092;9.820;2022-09-09T08:28:39;4.53;;;1.83;;
8871;SDS011;4472;52.092;9.820;2022-09-09T08:31:29;3.33;;;1.60;;
8871;SDS011;4472;52.092;9.820;2022-09-09T08:34:18;3.53;;;1.57;;
8871;SDS011;4472;52.092;9.820;2022-09-09T08:37:05;3.13;;;1.60;;
8871;SDS011;4472;52.092;9.820;2022-09-09T08:39:55;4.27;;;1.90;;
8871;SDS011;4472;52.092;9.820;2022-09-09T08:42:43;4.20;;;1.73;;
8871;SDS011;4472;52.092;9.820;2022-09-09T08:45:39;3.03;;;1.70;;
8871;SDS011;4472;52.092;9.820;2022-09-09T08:48:39;4.27;;;1.63;;
8871;SDS011;4472;52.092;9.820;2022-09-09T08:51:37;3.87;;;1.70;;
8871;SDS011;4472;52.092;9.820;2022-09-09T08:54:27;3.20;;;1.90;;
8871;SDS011;4472;52.092;9.820;2022-09-09T08:57:20;3.33;;;1.80;;
8871;SDS011;4472;52.092;9.820;2022-09-09T09:00:12;3.73;;;1.63;;
8871;SDS011;4472;52.092;9.820;2022-09-09T09:03:24;3.03;;;1.40;;
8871;SDS011;4472;52.092;9.820;2022-09-09T09:06:23;2.00;;;1.47;;
8871;SDS011;4472;52.092;9.820;2022-09-09T09:09:24;3.10;;;1.63;;
8871;SDS011;4472;52.092;9.820;2022-09-09T09:12:24;4.20;;;1.80;;
8871;SDS011;4472;52.092;9.820;2022-09-09T09:15:16;3.07;;;1.37;;
8871;SDS011;4472;52.092;9.820;2022-09-09T09:18:07;2.63;;;1.50;;
8871;SDS011;4472;52.092;9.820;2022-09-09T10:17:22;6.57;;;1.70;;
8871;SDS011;4472;52.092;9.820;2022-09-09T10:20:21;4.87;;;1.80;;
8871;SDS011;4472;52.092;9.820;2022-09-09T10:23:22;3.77;;;1.80;;
8871;SDS011;4472;52.092;9.820;2022-09-09T10:26:26;5.63;;;1.50;;
8871;SDS011;4472;52.092;9.820;2022-09-09T10:29:28;2.00;;;1.53;;
8871;SDS011;4472;52.092;9.820;2022-09-09T10:35:42;4.33;;;2.00;;
8871;SDS011;4472;52.092;9.820;2022-09-09T10:38:40;4.53;;;1.60;;
8871;SDS011;4472;52.092;9.820;2022-09-09T10:41:34;2.93;;;1.50;;
8871;SDS011;4472;52.092;9.820;2022-09-09T10:44:41;4.10;;;1.70;;
8871;SDS011;4472;52.092;9.820;2022-09-09T10:48:01;3.50;;;1.60;;
8871;SDS011;4472;52.092;9.820;2022-09-09T10:51:02;5.53;;;2.00;;
8871;SDS011;4472;52.092;9.820;2022-09-09T10:54:05;3.07;;;1.40;;
8871;SDS011;4472;52.092;9.820;2022-09-09T10:57:03;2.40;;;1.53;;
8871;SDS011;4472;52.092;9.820;2022-09-09T10:59:56;3.30;;;1.70;;
8871;SDS011;4472;52.092;9.820;2022-09-09T11:02:50;2.43;;;1.50;;
8871;SDS011;4472;52.092;9.820;2022-09-09T11:05:43;4.13;;;1.43;;
8871;SDS011;4472;52.092;9.820;2022-09-09T11:08:33;3.53;;;1.70;;
8871;SDS011;4472;52.092;9.820;2022-09-09T11:11:26;3.40;;;1.47;;
8871;SDS011;4472;52.092;9.820;2022-09-09T11:14:18;3.23;;;1.50;;
8871;SDS011;4472;52.092;9.820;2022-09-09T11:17:10;2.47;;;1.40;;
8871;SDS011;4472;52.092;9.820;2022-09-09T11:20:00;2.20;;;1.20;;
8871;SDS011;4472;52.092;9.820;2022-09-09T11:22:50;3.47;;;1.40;;
8871;SDS011;4472;52.092;9.820;2022-09-09T11:25:42;3.40;;;1.57;;
8871;SDS011;4472;52.092;9.820;2022-09-09T11:28:40;3.70;;;1.50;;
8871;SDS011;4472;52.092;9.820;2022-09-09T11:31:44;2.70;;;1.60;;
8871;SDS011;4472;52.092;9.820;2022-09-09T11:34:37;2.93;;;1.60;;
8871;SDS011;4472;52.092;9.820;2022-09-09T11:37:39;9.83;;;1.67;;
8871;SDS011;4472;52.092;9.820;2022-09-09T11:40:42;3.93;;;1.70;;
8871;SDS011;4472;52.092;9.820;2022-09-09T11:43:30;4.30;;;1.73;;
8871;SDS011;4472;52.092;9.820;2022-09-09T11:46:19;6.20;;;1.73;;
8871;SDS011;4472;52.092;9.820;2022-09-09T11:49:23;3.87;;;1.70;;
8871;SDS011;4472;52.092;9.820;2022-09-09T11:52:19;5.27;;;1.77;;
8871;SDS011;4472;52.092;9.820;2022-09-09T11:55:11;4.80;;;1.60;;
8871;SDS011;4472;52.092;9.820;2022-09-09T11:58:16;3.10;;;1.60;;
8871;SDS011;4472;52.092;9.820;2022-09-09T12:01:16;2.87;;;1.50;;
8871;SDS011;4472;52.092;9.820;2022-09-09T12:04:16;2.40;;;1.53;;
8871;SDS011;4472;52.092;9.820;2022-09-09T12:07:24;2.43;;;1.57;;
8871;SDS011;4472;52.092;9.820;2022-09-09T12:10:22;3.13;;;1.60;;
8871;SDS011;4472;52.092;9.820;2022-09-09T12:13:17;3.80;;;1.60;;
8871;SDS011;4472;52.092;9.820;2022-09-09T12:16:06;4.13;;;1.87;;
8871;SDS011;4472;52.092;9.820;2022-09-09T12:19:15;3.37;;;1.60;;
8871;SDS011;4472;52.092;9.820;2022-09-09T12:22:06;3.77;;;1.30;;
8871;SDS011;4472;52.092;9.820;2022-09-09T12:25:03;5.30;;;1.50;;
8871;SDS011;4472;52.092;9.820;2022-09-09T12:28:04;4.77;;;1.53;;
8871;SDS011;4472;52.092;9.820;2022-09-09T12:30:58;2.27;;;1.30;;
8871;SDS011;4472;52.092;9.820;2022-09-09T12:33:51;3.97;;;1.40;;
8871;SDS011;4472;52.092;9.820;2022-09-09T12:36:38;1.80;;;1.20;;
8871;SDS011;4472;52.092;9.820;2022-09-09T12:39:29;2.97;;;1.60;;
8871;SDS011;4472;52.092;9.820;2022-09-09T12:42:23;2.83;;;1.47;;
8871;SDS011;4472;52.092;9.820;2022-09-09T12:45:15;7.37;;;1.40;;
8871;SDS011;4472;52.092;9.820;2022-09-09T12:48:05;2.93;;;1.60;;
8871;SDS011;4472;52.092;9.820;2022-09-09T12:50:57;1.93;;;1.40;;
8871;SDS011;4472;52.092;9.820;2022-09-09T12:53:45;3.73;;;1.67;;
8871;SDS011;4472;52.092;9.820;2022-09-09T12:56:33;5.60;;;1.83;;
8871;SDS011;4472;52.092;9.820;2022-09-09T12:59:22;4.30;;;1.30;;
8871;SDS011;4472;52.092;9.820;2022-09-09T13:02:14;4.00;;;1.60;;
8871;SDS011;4472;52.092;9.820;2022-09-09T13:05:14;3.50;;;1.50;;
8871;SDS011;4472;52.092;9.820;2022-09-09T13:08:04;4.40;;;1.60;;
8871;SDS011;4472;52.092;9.820;2022-09-09T13:10:53;2.67;;;1.27;;
8871;SDS011;4472;52.092;9.820;2022-09-09T13:13:49;4.90;;;1.60;;
8871;SDS011;4472;52.092;9.820;2022-09-09T13:16:38;3.63;;;1.50;;
8871;SDS011;4472;52.092;9.820;2022-09-09T13:19:26;1.90;;;1.30;;
8871;SDS011;4472;52.092;9.820;2022-09-09T13:22:21;3.47;;;1.30;;
8871;SDS011;4472;52.092;9.820;2022-09-09T13:25:19;2.03;;;1.50;;
8871;SDS011;4472;52.092;9.820;2022-09-09T13:28:18;2.03;;;1.20;;
8871;SDS011;4472;52.092;9.820;2022-09-09T13:31:19;4.63;;;1.53;;
8871;SDS011;4472;52.092;9.820;2022-09-09T13:34:11;1.90;;;1.27;;
8871;SDS011;4472;52.092;9.820;2022-09-09T13:37:00;4.03;;;1.50;;
8871;SDS011;4472;52.092;9.820;2022-09-09T13:39:52;3.83;;;1.40;;
8871;SDS011;4472;52.092;9.820;2022-09-09T13:42:40;3.83;;;1.60;;
8871;SDS011;4472;52.092;9.820;2022-09-09T13:45:29;3.43;;;1.53;;
8871;SDS011;4472;52.092;9.820;2022-09-09T13:48:17;3.73;;;1.43;;
8871;SDS011;4472;52.092;9.820;2022-09-09T13:54:15;3.83;;;1.47;;
8871;SDS011;4472;52.092;9.820;2022-09-09T13:57:04;4.90;;;1.60;;
8871;SDS011;4472;52.092;9.820;2022-09-09T13:59:52;2.27;;;1.27;;
8871;SDS011;4472;52.092;9.820;2022-09-09T14:02:41;2.20;;;1.57;;
8871;SDS011;4472;52.092;9.820;2022-09-09T14:05:29;3.53;;;1.30;;
8871;SDS011;4472;52.092;9.820;2022-09-09T14:08:23;4.57;;;1.80;;
8871;SDS011;4472;52.092;9.820;2022-09-09T14:11:12;2.87;;;1.63;;
8871;SDS011;4472;52.092;9.820;2022-09-09T14:14:01;4.10;;;1.40;;
8871;SDS011;4472;52.092;9.820;2022-09-09T14:16:48;4.20;;;1.60;;
8871;SDS011;4472;52.092;9.820;2022-09-09T14:19:35;2.07;;;1.30;;
8871;SDS011;4472;52.092;9.820;2022-09-09T14:22:27;4.17;;;1.50;;
8871;SDS011;4472;52.092;9.820;2022-09-09T14:25:21;3.83;;;1.40;;
8871;SDS011;4472;52.092;9.820;2022-09-09T14:28:09;1.30;;;1.20;;
8871;SDS011;4472;52.092;9.820;2022-09-09T14:31:00;1.83;;;0.90;;
8871;SDS011;4472;52.092;9.820;2022-09-09T14:33:50;1.37;;;1.27;;
8871;SDS011;4472;52.092;9.820;2022-09-09T14:36:38;2.23;;;1.33;;
8871;SDS011;4472;52.092;9.820;2022-09-09T14:39:26;2.30;;;1.30;;
8871;SDS011;4472;52.092;9.820;2022-09-09T14:42:13;2.83;;;1.20;;
8871;SDS011;4472;52.092;9.820;2022-09-09T14:45:01;3.07;;;1.40;;
8871;SDS011;4472;52.092;9.820;2022-09-09T14:47:50;2.83;;;1.30;;
8871;SDS011;4472;52.092;9.820;2022-09-09T14:50:38;5.00;;;1.60;;
8871;SDS011;4472;52.092;9.820;2022-09-09T14:53:25;1.57;;;1.20;;
8871;SDS011;4472;52.092;9.820;2022-09-09T14:56:14;2.47;;;1.17;;
8871;SDS011;4472;52.092;9.820;2022-09-09T14:59:02;1.43;;;1.20;;
8871;SDS011;4472;52.092;9.820;2022-09-09T15:01:49;2.27;;;1.30;;
8871;SDS011;4472;52.092;9.820;2022-09-09T15:04:38;2.93;;;1.30;;
8871;SDS011;4472;52.092;9.820;2022-09-09T15:07:25;3.17;;;1.40;;
8871;SDS011;4472;52.092;9.820;2022-09-09T15:10:13;1.37;;;1.10;;
8871;SDS011;4472;52.092;9.820;2022-09-09T15:13:02;6.53;;;1.43;;
8871;SDS011;4472;52.092;9.820;2022-09-09T15:15:50;4.57;;;1.40;;
8871;SDS011;4472;52.092;9.820;2022-09-09T15:18:37;2.70;;;1.40;;
8871;SDS011;4472;52.092;9.820;2022-09-09T15:21:30;1.67;;;1.30;;
8871;SDS011;4472;52.092;9.820;2022-09-09T15:24:19;1.53;;;1.40;;
8871;SDS011;4472;52.092;9.820;2022-09-09T15:27:06;3.67;;;1.70;;
8871;SDS011;4472;52.092;9.820;2022-09-09T15:29:53;3.57;;;1.30;;
8871;SDS011;4472;52.092;9.820;2022-09-09T15:32:40;3.87;;;1.37;;
8871;SDS011;4472;52.092;9.820;2022-09-09T15:35:28;3.03;;;1.50;;
8871;SDS011;4472;52.092;9.820;2022-09-09T15:38:17;3.37;;;1.53;;
8871;SDS011;4472;52.092;9.820;2022-09-09T15:41:05;4.03;;;1.53;;
8871;SDS011;4472;52.092;9.820;2022-09-09T15:43:55;2.30;;;1.43;;
8871;SDS011;4472;52.092;9.820;2022-09-09T15:46:43;4.17;;;1.60;;
8871;SDS011;4472;52.092;9.820;2022-09-09T15:49:31;4.33;;;1.40;;
8871;SDS011;4472;52.092;9.820;2022-09-09T15:52:19;3.17;;;1.40;;
8871;SDS011;4472;52.092;9.820;2022-09-09T15:55:08;2.30;;;1.23;;
8871;SDS011;4472;52.092;9.820;2022-09-09T15:57:55;2.63;;;1.40;;
8871;SDS011;4472;52.092;9.820;2022-09-09T16:00:43;3.30;;;1.30;;
8871;SDS011;4472;52.092;9.820;2022-09-09T16:03:33;5.27;;;1.40;;
8871;SDS011;4472;52.092;9.820;2022-09-09T16:06:21;3.80;;;1.27;;
8871;SDS011;4472;52.092;9.820;2022-09-09T16:09:09;2.00;;;1.23;;
8871;SDS011;4472;52.092;9.820;2022-09-09T16:11:58;2.73;;;1.50;;
8871;SDS011;4472;52.092;9.820;2022-09-09T16:14:47;5.73;;;1.13;;
8871;SDS011;4472;52.092;9.820;2022-09-09T16:17:35;3.30;;;1.30;;
8871;SDS011;4472;52.092;9.820;2022-09-09T16:20:23;2.90;;;1.30;;
8871;SDS011;4472;52.092;9.820;2022-09-09T16:23:11;4.37;;;1.60;;
8871;SDS011;4472;52.092;9.820;2022-09-09T16:25:58;1.73;;;1.20;;
8871;SDS011;4472;52.092;9.820;2022-09-09T16:28:46;3.97;;;1.30;;
8871;SDS011;4472;52.092;9.820;2022-09-09T16:31:34;3.07;;;1.10;;
8871;SDS011;4472;52.092;9.820;2022-09-09T16:34:21;2.97;;;1.43;;
8871;SDS011;4472;52.092;9.820;2022-09-09T16:37:09;2.20;;;1.40;;
8871;SDS011;4472;52.092;9.820;2022-09-09T16:39:56;2.67;;;1.20;;
8871;SDS011;4472;52.092;9.820;2022-09-09T16:42:44;2.30;;;1.27;;
8871;SDS011;4472;52.092;9.820;2022-09-09T16:45:33;5.13;;;1.40;;
8871;SDS011;4472;52.092;9.820;2022-09-09T16:48:20;2.23;;;1.30;;
8871;SDS011;4472;52.092;9.820;2022-09-09T16:51:12;4.00;;;1.50;;
8871;SDS011;4472;52.092;9.820;2022-09-09T16:54:01;1.47;;;1.20;;
8871;SDS011;4472;52.092;9.820;2022-09-09T16:56:51;1.30;;;1.20;;
8871;SDS011;4472;52.092;9.820;2022-09-09T16:59:39;2.03;;;1.23;;
8871;SDS011;4472;52.092;9.820;2022-09-09T17:02:28;2.67;;;1.23;;
8871;SDS011;4472;52.092;9.820;2022-09-09T17:05:15;1.83;;;1.40;;
8871;SDS011;4472;52.092;9.820;2022-09-09T17:08:03;4.27;;;1.20;;
8871;SDS011;4472;52.092;9.820;2022-09-09T17:10:50;4.37;;;1.27;;
8871;SDS011;4472;52.092;9.820;2022-09-09T17:13:37;2.13;;;1.30;;
8871;SDS011;4472;52.092;9.820;2022-09-09T17:16:25;2.33;;;1.37;;
8871;SDS011;4472;52.092;9.820;2022-09-09T17:19:15;3.17;;;1.40;;
8871;SDS011;4472;52.092;9.820;2022-09-09T17:22:04;3.07;;;1.30;;
8871;SDS011;4472;52.092;9.820;2022-09-09T17:24:52;6.57;;;1.40;;
8871;SDS011;4472;52.092;9.820;2022-09-09T17:27:40;2.30;;;1.43;;
8871;SDS011;4472;52.092;9.820;2022-09-09T17:30:27;2.20;;;1.57;;
8871;SDS011;4472;52.092;9.820;2022-09-09T17:33:15;1.90;;;1.23;;
8871;SDS011;4472;52.092;9.820;2022-09-09T17:36:06;2.73;;;1.30;;
8871;SDS011;4472;52.092;9.820;2022-09-09T17:38:55;2.10;;;1.30;;
8871;SDS011;4472;52.092;9.820;2022-09-09T17:41:43;1.43;;;1.20;;
8871;SDS011;4472;52.092;9.820;2022-09-09T17:44:30;3.40;;;1.30;;
8871;SDS011;4472;52.092;9.820;2022-09-09T17:47:18;4.57;;;1.47;;
8871;SDS011;4472;52.092;9.820;2022-09-09T17:50:06;2.00;;;1.23;;
8871;SDS011;4472;52.092;9.820;2022-09-09T17:52:55;1.67;;;1.40;;
8871;SDS011;4472;52.092;9.820;2022-09-09T17:55:44;2.77;;;1.50;;
8871;SDS011;4472;52.092;9.820;2022-09-09T17:58:31;3.93;;;1.60;;
8871;SDS011;4472;52.092;9.820;2022-09-09T18:01:19;3.83;;;1.63;;
8871;SDS011;4472;52.092;9.820;2022-09-09T18:04:08;4.57;;;1.70;;
8871;SDS011;4472;52.092;9.820;2022-09-09T18:06:58;1.87;;;1.30;;
8871;SDS011;4472;52.092;9.820;2022-09-09T18:09:47;3.83;;;1.60;;
8871;SDS011;4472;52.092;9.820;2022-09-09T18:12:35;2.77;;;1.57;;
8871;SDS011;4472;52.092;9.820;2022-09-09T18:15:22;4.27;;;1.43;;
8871;SDS011;4472;52.092;9.820;2022-09-09T18:18:09;3.40;;;1.27;;
8871;SDS011;4472;52.092;9.820;2022-09-09T18:20:57;3.73;;;1.43;;
8871;SDS011;4472;52.092;9.820;2022-09-09T18:23:46;4.00;;;1.60;;
8871;SDS011;4472;52.092;9.820;2022-09-09T18:26:38;3.60;;;1.37;;
8871;SDS011;4472;52.092;9.820;2022-09-09T18:29:26;2.50;;;1.27;;
8871;SDS011;4472;52.092;9.820;2022-09-09T18:32:14;3.40;;;1.30;;
8871;SDS011;4472;52.092;9.820;2022-09-09T18:35:04;2.77;;;1.50;;
8871;SDS011;4472;52.092;9.820;2022-09-09T18:37:52;1.37;;;1.23;;
8871;SDS011;4472;52.092;9.820;2022-09-09T18:40:39;2.77;;;1.60;;
8871;SDS011;4472;52.092;9.820;2022-09-09T18:43:28;4.93;;;1.40;;
8871;SDS011;4472;52.092;9.820;2022-09-09T18:46:15;4.83;;;1.80;;
8871;SDS011;4472;52.092;9.820;2022-09-09T18:49:03;4.57;;;1.40;;
8871;SDS011;4472;52.092;9.820;2022-09-09T18:51:51;4.73;;;1.60;;
8871;SDS011;4472;52.092;9.820;2022-09-09T18:54:38;1.93;;;1.40;;
8871;SDS011;4472;52.092;9.820;2022-09-09T18:57:28;2.97;;;1.20;;
8871;SDS011;4472;52.092;9.820;2022-09-09T19:00:17;3.53;;;1.40;;
8871;SDS011;4472;52.092;9.820;2022-09-09T19:03:04;4.47;;;1.40;;
8871;SDS011;4472;52.092;9.820;2022-09-09T19:05:51;1.40;;;1.00;;
8871;SDS011;4472;52.092;9.820;2022-09-09T19:08:39;1.93;;;1.20;;
8871;SDS011;4472;52.092;9.820;2022-09-09T19:11:27;2.40;;;1.10;;
8871;SDS011;4472;52.092;9.820;2022-09-09T19:14:15;1.20;;;1.10;;
8871;SDS011;4472;52.092;9.820;2022-09-09T19:17:04;1.23;;;0.90;;
8871;SDS011;4472;52.092;9.820;2022-09-09T19:19:52;1.10;;;1.00;;
8871;SDS011;4472;52.092;9.820;2022-09-09T19:22:39;3.13;;;1.10;;
8871;SDS011;4472;52.092;9.820;2022-09-09T19:25:26;1.53;;;1.03;;
8871;SDS011;4472;52.092;9.820;2022-09-09T19:28:13;1.87;;;0.90;;
8871;SDS011;4472;52.092;9.820;2022-09-09T19:31:01;2.00;;;0.90;;
8871;SDS011;4472;52.092;9.820;2022-09-09T19:33:51;1.60;;;1.00;;
8871;SDS011;4472;52.092;9.820;2022-09-09T19:36:40;2.13;;;1.10;;
8871;SDS011;4472;52.092;9.820;2022-09-09T19:39:28;2.57;;;1.30;;
8871;SDS011;4472;52.092;9.820;2022-09-09T19:42:16;1.13;;;1.10;;
8871;SDS011;4472;52.092;9.820;2022-09-09T19:45:03;2.10;;;1.00;;
8871;SDS011;4472;52.092;9.820;2022-09-09T19:47:53;1.37;;;1.00;;
8871;SDS011;4472;52.092;9.820;2022-09-09T19:50:41;2.20;;;1.10;;
8871;SDS011;4472;52.092;9.820;2022-09-09T19:53:28;1.47;;;1.00;;
8871;SDS011;4472;52.092;9.820;2022-09-09T19:56:16;2.40;;;1.17;;
8871;SDS011;4472;52.092;9.820;2022-09-09T19:59:06;1.80;;;1.23;;
8871;SDS011;4472;52.092;9.820;2022-09-09T20:01:55;1.50;;;1.00;;
8871;SDS011;4472;52.092;9.820;2022-09-09T20:04:42;2.10;;;1.00;;
8871;SDS011;4472;52.092;9.820;2022-09-09T20:07:31;1.60;;;1.00;;
8871;SDS011;4472;52.092;9.820;2022-09-09T20:10:18;1.57;;;1.30;;
8871;SDS011;4472;52.092;9.820;2022-09-09T20:13:06;1.03;;;1.00;;
8871;SDS011;4472;52.092;9.820;2022-09-09T20:15:56;1.40;;;1.30;;
8871;SDS011;4472;52.092;9.820;2022-09-09T20:18:47;2.43;;;1.00;;
8871;SDS011;4472;52.092;9.820;2022-09-09T20:21:37;1.03;;;1.00;;
8871;SDS011;4472;52.092;9.820;2022-09-09T20:24:27;1.13;;;1.03;;
8871;SDS011;4472;52.092;9.820;2022-09-09T20:27:14;1.10;;;1.10;;
8871;SDS011;4472;52.092;9.820;2022-09-09T20:30:01;1.20;;;1.10;;
8871;SDS011;4472;52.092;9.820;2022-09-09T20:32:49;1.90;;;1.20;;
8871;SDS011;4472;52.092;9.820;2022-09-09T20:35:36;4.10;;;1.27;;
8871;SDS011;4472;52.092;9.820;2022-09-09T20:38:23;1.57;;;1.40;;
8871;SDS011;4472;52.092;9.820;2022-09-09T20:41:13;1.87;;;1.30;;
8871;SDS011;4472;52.092;9.820;2022-09-09T20:44:04;2.07;;;1.37;;
8871;SDS011;4472;52.092;9.820;2022-09-09T20:46:54;1.90;;;1.20;;
8871;SDS011;4472;52.092;9.820;2022-09-09T20:49:47;2.17;;;1.30;;
8871;SDS011;4472;52.092;9.820;2022-09-09T20:52:34;1.93;;;1.23;;
8871;SDS011;4472;52.092;9.820;2022-09-09T20:55:22;2.03;;;1.40;;
8871;SDS011;4472;52.092;9.820;2022-09-09T20:58:12;2.00;;;1.40;;
8871;SDS011;4472;52.092;9.820;2022-09-09T21:01:00;4.27;;;1.20;;
8871;SDS011;4472;52.092;9.820;2022-09-09T21:03:47;1.40;;;1.27;;
8871;SDS011;4472;52.092;9.820;2022-09-09T21:06:34;3.27;;;1.40;;
8871;SDS011;4472;52.092;9.820;2022-09-09T21:09:22;1.50;;;1.13;;
8871;SDS011;4472;52.092;9.820;2022-09-09T21:12:09;1.87;;;1.13;;
8871;SDS011;4472;52.092;9.820;2022-09-09T21:14:57;2.30;;;1.10;;
8871;SDS011;4472;52.092;9.820;2022-09-09T21:17:46;1.90;;;1.10;;
8871;SDS011;4472;52.092;9.820;2022-09-09T21:20:33;1.53;;;1.30;;
8871;SDS011;4472;52.092;9.820;2022-09-09T21:23:20;2.93;;;1.40;;
8871;SDS011;4472;52.092;9.820;2022-09-09T21:26:07;2.00;;;1.30;;
8871;SDS011;4472;52.092;9.820;2022-09-09T21:28:55;2.27;;;1.23;;
8871;SDS011;4472;52.092;9.820;2022-09-09T21:31:43;2.23;;;1.47;;
8871;SDS011;4472;52.092;9.820;2022-09-09T21:34:32;1.37;;;1.17;;
8871;SDS011;4472;52.092;9.820;2022-09-09T21:37:20;4.43;;;1.30;;
8871;SDS011;4472;52.092;9.820;2022-09-09T21:40:07;2.10;;;1.10;;
8871;SDS011;4472;52.092;9.820;2022-09-09T21:42:55;1.53;;;1.10;;
8871;SDS011;4472;52.092;9.820;2022-09-09T21:45:44;0.90;;;0.90;;
8871;SDS011;4472;52.092;9.820;2022-09-09T21:48:33;1.67;;;1.07;;
8871;SDS011;4472;52.092;9.820;2022-09-09T21:51:20;2.00;;;1.10;;
8871;SDS011;4472;52.092;9.820;2022-09-09T21:54:07;1.23;;;1.13;;
8871;SDS011;4472;52.092;9.820;2022-09-09T21:56:55;1.10;;;1.00;;
8871;SDS011;4472;52.092;9.820;2022-09-09T21:59:42;1.30;;;1.00;;
8871;SDS011;4472;52.092;9.820;2022-09-09T22:02:29;2.47;;;1.00;;
8871;SDS011;4472;52.092;9.820;2022-09-09T22:05:18;1.50;;;1.10;;
8871;SDS011;4472;52.092;9.820;2022-09-09T22:08:05;1.27;;;1.13;;
8871;SDS011;4472;52.092;9.820;2022-09-09T22:10:52;1.93;;;1.10;;
8871;SDS011;4472;52.092;9.820;2022-09-09T22:13:40;1.20;;;1.17;;
8871;SDS011;4472;52.092;9.820;2022-09-09T22:16:29;1.10;;;1.10;;
8871;SDS011;4472;52.092;9.820;2022-09-09T22:19:16;1.53;;;1.10;;
8871;SDS011;4472;52.092;9.820;2022-09-09T22:22:05;2.03;;;1.13;;
8871;SDS011;4472;52.092;9.820;2022-09-09T22:24:52;2.77;;;1.30;;
8871;SDS011;4472;52.092;9.820;2022-09-09T22:27:39;1.93;;;1.23;;
8871;SDS011;4472;52.092;9.820;2022-09-09T22:30:26;2.03;;;1.30;;
8871;SDS011;4472;52.092;9.820;2022-09-09T22:33:14;1.20;;;1.00;;
8871;SDS011;4472;52.092;9.820;2022-09-09T22:36:04;0.90;;;0.90;;
8871;SDS011;4472;52.092;9.820;2022-09-09T22:38:53;4.03;;;1.00;;
8871;SDS011;4472;52.092;9.820;2022-09-09T22:41:41;1.67;;;1.10;;
8871;SDS011;4472;52.092;9.820;2022-09-09T22:44:28;1.73;;;1.30;;
8871;SDS011;4472;52.092;9.820;2022-09-09T22:47:16;3.20;;;1.30;;
8871;SDS011;4472;52.092;9.820;2022-09-09T22:50:04;4.53;;;1.13;;
8871;SDS011;4472;52.092;9.820;2022-09-09T22:52:51;1.47;;;1.03;;
8871;SDS011;4472;52.092;9.820;2022-09-09T22:55:40;3.00;;;1.30;;
8871;SDS011;4472;52.092;9.820;2022-09-09T22:58:28;1.30;;;1.10;;
8871;SDS011;4472;52.092;9.820;2022-09-09T23:01:18;2.53;;;1.20;;
8871;SDS011;4472;52.092;9.820;2022-09-09T23:04:05;1.80;;;1.00;;
8871;SDS011;4472;52.092;9.820;2022-09-09T23:06:53;2.20;;;1.20;;